sensor_id;sensor_type;location;lat;lon;timestamp;P1;durP1;ratioP1;P2;durP2;ratioP2
71622;SDS011;59473;53.214;5.728;2022-11-15T00:01:17;25.80;;;14.03;;
71622;SDS011;59473;53.214;5.728;2022-11-15T00:03:43;26.33;;;14.25;;
71622;SDS011;59473;53.214;5.728;2022-11-15T00:06:08;24.73;;;13.70;;
71622;SDS011;59473;53.214;5.728;2022-11-15T00:08:34;25.45;;;14.85;;
71622;SDS011;59473;53.214;5.728;2022-11-15T00:11:00;25.87;;;14.10;;
71622;SDS011;59473;53.214;5.728;2022-11-15T00:13:25;25.67;;;14.13;;
71622;SDS011;59473;53.214;5.728;2022-11-15T00:15:51;25.60;;;14.45;;
71622;SDS011;59473;53.214;5.728;2022-11-15T00:18:16;24.30;;;13.47;;
71622;SDS011;59473;53.214;5.728;2022-11-15T00:20:42;27.30;;;14.33;;
71622;SDS011;59473;53.214;5.728;2022-11-15T00:23:07;24.30;;;14.30;;
71622;SDS011;59473;53.214;5.728;2022-11-15T00:25:33;26.53;;;14.50;;
71622;SDS011;59473;53.214;5.728;2022-11-15T00:27:58;22.27;;;12.80;;
71622;SDS011;59473;53.214;5.728;2022-11-15T00:30:24;26.25;;;13.82;;
71622;SDS011;59473;53.214;5.728;2022-11-15T00:32:50;26.17;;;14.10;;
71622;SDS011;59473;53.214;5.728;2022-11-15T00:35:15;27.80;;;15.23;;
71622;SDS011;59473;53.214;5.728;2022-11-15T00:37:40;28.27;;;15.37;;
71622;SDS011;59473;53.214;5.728;2022-11-15T00:40:06;25.70;;;14.63;;
71622;SDS011;59473;53.214;5.728;2022-11-15T00:42:31;27.08;;;14.85;;
71622;SDS011;59473;53.214;5.728;2022-11-15T00:44:56;28.57;;;15.97;;
71622;SDS011;59473;53.214;5.728;2022-11-15T00:47:21;30.63;;;16.70;;
71622;SDS011;59473;53.214;5.728;2022-11-15T00:49:47;30.10;;;16.37;;
71622;SDS011;59473;53.214;5.728;2022-11-15T00:52:12;26.20;;;14.60;;
71622;SDS011;59473;53.214;5.728;2022-11-15T00:54:37;29.30;;;15.47;;
71622;SDS011;59473;53.214;5.728;2022-11-15T00:57:02;29.37;;;16.00;;
71622;SDS011;59473;53.214;5.728;2022-11-15T00:59:27;27.33;;;15.57;;
71622;SDS011;59473;53.214;5.728;2022-11-15T01:01:53;34.07;;;17.10;;
71622;SDS011;59473;53.214;5.728;2022-11-15T01:04:18;26.17;;;15.57;;
71622;SDS011;59473;53.214;5.728;2022-11-15T01:06:43;30.03;;;16.63;;
71622;SDS011;59473;53.214;5.728;2022-11-15T01:09:08;26.20;;;16.30;;
71622;SDS011;59473;53.214;5.728;2022-11-15T01:11:34;28.20;;;15.83;;
71622;SDS011;59473;53.214;5.728;2022-11-15T01:13:59;27.63;;;15.57;;
71622;SDS011;59473;53.214;5.728;2022-11-15T01:16:24;26.77;;;14.83;;
71622;SDS011;59473;53.214;5.728;2022-11-15T01:18:50;29.90;;;15.83;;
71622;SDS011;59473;53.214;5.728;2022-11-15T01:21:16;28.80;;;15.57;;
71622;SDS011;59473;53.214;5.728;2022-11-15T01:23:42;33.42;;;17.98;;
71622;SDS011;59473;53.214;5.728;2022-11-15T01:26:09;31.93;;;17.27;;
71622;SDS011;59473;53.214;5.728;2022-11-15T01:28:35;28.88;;;16.92;;
71622;SDS011;59473;53.214;5.728;2022-11-15T01:31:01;31.80;;;16.33;;
71622;SDS011;59473;53.214;5.728;2022-11-15T01:33:27;31.07;;;17.23;;
71622;SDS011;59473;53.214;5.728;2022-11-15T01:35:52;32.08;;;17.15;;
71622;SDS011;59473;53.214;5.728;2022-11-15T01:38:17;31.37;;;17.00;;
71622;SDS011;59473;53.214;5.728;2022-11-15T01:40:43;32.63;;;18.07;;
71622;SDS011;59473;53.214;5.728;2022-11-15T01:43:24;33.67;;;18.17;;
71622;SDS011;59473;53.214;5.728;2022-11-15T01:45:51;32.58;;;17.73;;
71622;SDS011;59473;53.214;5.728;2022-11-15T01:48:18;34.60;;;18.45;;
71622;SDS011;59473;53.214;5.728;2022-11-15T01:50:44;35.30;;;18.50;;
71622;SDS011;59473;53.214;5.728;2022-11-15T01:53:10;32.75;;;19.45;;
71622;SDS011;59473;53.214;5.728;2022-11-15T01:55:35;33.37;;;18.23;;
71622;SDS011;59473;53.214;5.728;2022-11-15T01:58:01;33.40;;;18.13;;
71622;SDS011;59473;53.214;5.728;2022-11-15T02:00:27;38.60;;;19.23;;
71622;SDS011;59473;53.214;5.728;2022-11-15T02:02:52;37.30;;;19.37;;
71622;SDS011;59473;53.214;5.728;2022-11-15T02:05:18;36.10;;;17.17;;
71622;SDS011;59473;53.214;5.728;2022-11-15T02:07:43;30.73;;;16.67;;
71622;SDS011;59473;53.214;5.728;2022-11-15T02:10:10;33.30;;;17.90;;
71622;SDS011;59473;53.214;5.728;2022-11-15T02:12:36;33.88;;;17.38;;
71622;SDS011;59473;53.214;5.728;2022-11-15T02:15:01;34.73;;;18.00;;
71622;SDS011;59473;53.214;5.728;2022-11-15T02:22:40;38.27;;;18.47;;
71622;SDS011;59473;53.214;5.728;2022-11-15T02:30:21;34.83;;;17.98;;
71622;SDS011;59473;53.214;5.728;2022-11-15T02:32:48;35.65;;;17.95;;
71622;SDS011;59473;53.214;5.728;2022-11-15T02:42:35;35.13;;;16.63;;
71622;SDS011;59473;53.214;5.728;2022-11-15T02:45:25;33.63;;;18.10;;
71622;SDS011;59473;53.214;5.728;2022-11-15T02:47:52;33.30;;;17.65;;
71622;SDS011;59473;53.214;5.728;2022-11-15T02:50:18;33.40;;;16.10;;
71622;SDS011;59473;53.214;5.728;2022-11-15T02:52:45;38.33;;;18.95;;
71622;SDS011;59473;53.214;5.728;2022-11-15T02:55:30;35.33;;;18.20;;
71622;SDS011;59473;53.214;5.728;2022-11-15T03:00:39;36.75;;;18.27;;
71622;SDS011;59473;53.214;5.728;2022-11-15T03:08:10;45.90;;;19.63;;
71622;SDS011;59473;53.214;5.728;2022-11-15T03:13:14;46.90;;;19.37;;
71622;SDS011;59473;53.214;5.728;2022-11-15T03:15:44;52.90;;;20.30;;
71622;SDS011;59473;53.214;5.728;2022-11-15T03:18:19;53.58;;;21.45;;
71622;SDS011;59473;53.214;5.728;2022-11-15T03:20:46;52.28;;;22.45;;
71622;SDS011;59473;53.214;5.728;2022-11-15T03:23:12;56.50;;;22.90;;
71622;SDS011;59473;53.214;5.728;2022-11-15T03:25:40;54.42;;;23.17;;
71622;SDS011;59473;53.214;5.728;2022-11-15T03:28:06;52.13;;;20.77;;
71622;SDS011;59473;53.214;5.728;2022-11-15T03:30:34;54.05;;;22.17;;
71622;SDS011;59473;53.214;5.728;2022-11-15T03:33:00;54.37;;;21.70;;
71622;SDS011;59473;53.214;5.728;2022-11-15T03:35:27;57.13;;;21.42;;
71622;SDS011;59473;53.214;5.728;2022-11-15T03:40:30;61.03;;;22.27;;
71622;SDS011;59473;53.214;5.728;2022-11-15T03:43:00;58.25;;;22.20;;
71622;SDS011;59473;53.214;5.728;2022-11-15T03:45:32;71.53;;;22.60;;
71622;SDS011;59473;53.214;5.728;2022-11-15T03:48:34;74.07;;;22.48;;
71622;SDS011;59473;53.214;5.728;2022-11-15T03:50:51;67.07;;;22.63;;
71622;SDS011;59473;53.214;5.728;2022-11-15T03:53:17;67.43;;;21.10;;
71622;SDS011;59473;53.214;5.728;2022-11-15T03:55:42;61.38;;;20.60;;
71622;SDS011;59473;53.214;5.728;2022-11-15T03:58:08;75.90;;;23.07;;
71622;SDS011;59473;53.214;5.728;2022-11-15T04:00:33;68.17;;;23.03;;
71622;SDS011;59473;53.214;5.728;2022-11-15T04:02:58;66.23;;;22.87;;
71622;SDS011;59473;53.214;5.728;2022-11-15T04:05:23;75.40;;;22.37;;
71622;SDS011;59473;53.214;5.728;2022-11-15T04:07:49;64.00;;;21.13;;
71622;SDS011;59473;53.214;5.728;2022-11-15T04:10:14;77.43;;;22.13;;
71622;SDS011;59473;53.214;5.728;2022-11-15T04:12:41;68.43;;;21.30;;
71622;SDS011;59473;53.214;5.728;2022-11-15T04:17:43;75.50;;;22.37;;
71622;SDS011;59473;53.214;5.728;2022-11-15T04:20:13;84.35;;;24.17;;
71622;SDS011;59473;53.214;5.728;2022-11-15T04:22:58;75.80;;;23.23;;
71622;SDS011;59473;53.214;5.728;2022-11-15T04:25:42;94.43;;;24.42;;
71622;SDS011;59473;53.214;5.728;2022-11-15T04:28:07;75.37;;;21.60;;
71622;SDS011;59473;53.214;5.728;2022-11-15T04:30:32;82.50;;;22.97;;
71622;SDS011;59473;53.214;5.728;2022-11-15T04:32:57;78.67;;;22.87;;
71622;SDS011;59473;53.214;5.728;2022-11-15T04:35:23;76.30;;;23.87;;
71622;SDS011;59473;53.214;5.728;2022-11-15T04:37:48;82.47;;;23.37;;
71622;SDS011;59473;53.214;5.728;2022-11-15T04:40:13;81.87;;;26.23;;
71622;SDS011;59473;53.214;5.728;2022-11-15T04:42:40;76.03;;;22.70;;
71622;SDS011;59473;53.214;5.728;2022-11-15T04:45:05;77.65;;;22.27;;
71622;SDS011;59473;53.214;5.728;2022-11-15T04:47:31;71.07;;;21.77;;
71622;SDS011;59473;53.214;5.728;2022-11-15T04:49:56;60.63;;;19.40;;
71622;SDS011;59473;53.214;5.728;2022-11-15T04:52:21;72.93;;;21.60;;
71622;SDS011;59473;53.214;5.728;2022-11-15T04:54:46;59.33;;;22.23;;
71622;SDS011;59473;53.214;5.728;2022-11-15T04:57:12;58.53;;;19.80;;
71622;SDS011;59473;53.214;5.728;2022-11-15T04:59:37;69.87;;;20.37;;
71622;SDS011;59473;53.214;5.728;2022-11-15T05:02:02;64.50;;;20.97;;
71622;SDS011;59473;53.214;5.728;2022-11-15T05:04:27;72.40;;;22.27;;
71622;SDS011;59473;53.214;5.728;2022-11-15T05:06:52;65.07;;;20.23;;
71622;SDS011;59473;53.214;5.728;2022-11-15T05:09:18;67.13;;;20.73;;
71622;SDS011;59473;53.214;5.728;2022-11-15T05:11:44;71.40;;;22.00;;
71622;SDS011;59473;53.214;5.728;2022-11-15T05:14:09;78.87;;;23.53;;
71622;SDS011;59473;53.214;5.728;2022-11-15T05:16:35;72.20;;;21.73;;
71622;SDS011;59473;53.214;5.728;2022-11-15T05:19:00;86.03;;;23.40;;
71622;SDS011;59473;53.214;5.728;2022-11-15T05:21:25;65.57;;;20.87;;
71622;SDS011;59473;53.214;5.728;2022-11-15T05:23:50;84.40;;;21.83;;
71622;SDS011;59473;53.214;5.728;2022-11-15T05:26:16;83.93;;;22.10;;
71622;SDS011;59473;53.214;5.728;2022-11-15T05:28:42;80.22;;;21.70;;
71622;SDS011;59473;53.214;5.728;2022-11-15T05:31:11;109.10;;;22.33;;
71622;SDS011;59473;53.214;5.728;2022-11-15T05:33:37;103.57;;;22.58;;
71622;SDS011;59473;53.214;5.728;2022-11-15T05:38:28;111.63;;;24.83;;
71622;SDS011;59473;53.214;5.728;2022-11-15T05:40:53;102.90;;;24.67;;
71622;SDS011;59473;53.214;5.728;2022-11-15T05:43:18;101.53;;;22.27;;
71622;SDS011;59473;53.214;5.728;2022-11-15T05:45:44;102.53;;;24.90;;
71622;SDS011;59473;53.214;5.728;2022-11-15T05:48:09;134.33;;;26.67;;
71622;SDS011;59473;53.214;5.728;2022-11-15T05:50:35;133.57;;;26.83;;
71622;SDS011;59473;53.214;5.728;2022-11-15T05:53:01;104.87;;;24.30;;
71622;SDS011;59473;53.214;5.728;2022-11-15T05:55:26;102.97;;;23.55;;
71622;SDS011;59473;53.214;5.728;2022-11-15T05:57:51;108.30;;;24.63;;
71622;SDS011;59473;53.214;5.728;2022-11-15T06:00:17;94.20;;;22.13;;
71622;SDS011;59473;53.214;5.728;2022-11-15T06:02:42;96.90;;;23.77;;
71622;SDS011;59473;53.214;5.728;2022-11-15T06:05:07;114.70;;;26.70;;
71622;SDS011;59473;53.214;5.728;2022-11-15T06:07:33;120.13;;;27.17;;
71622;SDS011;59473;53.214;5.728;2022-11-15T06:09:58;120.50;;;27.73;;
71622;SDS011;59473;53.214;5.728;2022-11-15T06:12:23;114.43;;;26.53;;
71622;SDS011;59473;53.214;5.728;2022-11-15T06:14:48;115.83;;;27.57;;
71622;SDS011;59473;53.214;5.728;2022-11-15T06:17:14;125.20;;;27.17;;
71622;SDS011;59473;53.214;5.728;2022-11-15T06:19:39;113.13;;;28.40;;
71622;SDS011;59473;53.214;5.728;2022-11-15T06:22:04;114.37;;;27.53;;
71622;SDS011;59473;53.214;5.728;2022-11-15T06:24:29;98.57;;;26.17;;
71622;SDS011;59473;53.214;5.728;2022-11-15T06:26:54;95.47;;;27.63;;
71622;SDS011;59473;53.214;5.728;2022-11-15T06:29:20;102.40;;;27.30;;
71622;SDS011;59473;53.214;5.728;2022-11-15T06:31:45;92.80;;;26.63;;
71622;SDS011;59473;53.214;5.728;2022-11-15T06:34:10;99.87;;;27.13;;
71622;SDS011;59473;53.214;5.728;2022-11-15T06:36:36;108.77;;;27.73;;
71622;SDS011;59473;53.214;5.728;2022-11-15T06:39:02;106.72;;;26.63;;
71622;SDS011;59473;53.214;5.728;2022-11-15T06:41:27;95.53;;;24.63;;
71622;SDS011;59473;53.214;5.728;2022-11-15T06:43:53;109.70;;;26.83;;
71622;SDS011;59473;53.214;5.728;2022-11-15T06:46:18;97.77;;;26.77;;
71622;SDS011;59473;53.214;5.728;2022-11-15T06:48:43;124.97;;;30.53;;
71622;SDS011;59473;53.214;5.728;2022-11-15T06:51:08;119.60;;;29.30;;
71622;SDS011;59473;53.214;5.728;2022-11-15T06:53:33;102.53;;;27.07;;
71622;SDS011;59473;53.214;5.728;2022-11-15T06:56:03;105.87;;;28.33;;
71622;SDS011;59473;53.214;5.728;2022-11-15T06:58:29;114.90;;;28.70;;
71622;SDS011;59473;53.214;5.728;2022-11-15T07:00:57;119.80;;;30.20;;
71622;SDS011;59473;53.214;5.728;2022-11-15T07:03:23;125.95;;;28.92;;
71622;SDS011;59473;53.214;5.728;2022-11-15T07:05:52;112.37;;;30.30;;
71622;SDS011;59473;53.214;5.728;2022-11-15T07:08:18;114.80;;;29.83;;
71622;SDS011;59473;53.214;5.728;2022-11-15T07:10:43;91.90;;;26.73;;
71622;SDS011;59473;53.214;5.728;2022-11-15T07:13:09;110.53;;;28.93;;
71622;SDS011;59473;53.214;5.728;2022-11-15T07:15:34;107.03;;;29.63;;
71622;SDS011;59473;53.214;5.728;2022-11-15T07:18:02;128.07;;;31.47;;
71622;SDS011;59473;53.214;5.728;2022-11-15T07:20:27;87.23;;;24.53;;
71622;SDS011;59473;53.214;5.728;2022-11-15T07:22:59;116.37;;;29.00;;
71622;SDS011;59473;53.214;5.728;2022-11-15T07:25:24;135.18;;;33.00;;
71622;SDS011;59473;53.214;5.728;2022-11-15T07:27:56;120.30;;;30.43;;
71622;SDS011;59473;53.214;5.728;2022-11-15T07:30:21;122.97;;;32.53;;
71622;SDS011;59473;53.214;5.728;2022-11-15T07:32:47;125.00;;;35.10;;
71622;SDS011;59473;53.214;5.728;2022-11-15T07:35:12;115.10;;;29.33;;
71622;SDS011;59473;53.214;5.728;2022-11-15T07:37:37;121.27;;;30.77;;
71622;SDS011;59473;53.214;5.728;2022-11-15T07:40:02;132.30;;;31.40;;
71622;SDS011;59473;53.214;5.728;2022-11-15T07:42:28;120.30;;;32.77;;
71622;SDS011;59473;53.214;5.728;2022-11-15T07:45:13;137.50;;;31.98;;
71622;SDS011;59473;53.214;5.728;2022-11-15T07:47:39;121.53;;;31.30;;
71622;SDS011;59473;53.214;5.728;2022-11-15T07:50:04;119.07;;;32.13;;
71622;SDS011;59473;53.214;5.728;2022-11-15T07:52:29;105.93;;;29.70;;
71622;SDS011;59473;53.214;5.728;2022-11-15T07:54:54;114.73;;;30.47;;
71622;SDS011;59473;53.214;5.728;2022-11-15T07:57:20;102.83;;;29.67;;
71622;SDS011;59473;53.214;5.728;2022-11-15T07:59:45;115.47;;;31.67;;
71622;SDS011;59473;53.214;5.728;2022-11-15T08:02:10;104.03;;;31.17;;
71622;SDS011;59473;53.214;5.728;2022-11-15T08:04:35;99.70;;;29.17;;
71622;SDS011;59473;53.214;5.728;2022-11-15T08:07:01;95.73;;;30.10;;
71622;SDS011;59473;53.214;5.728;2022-11-15T08:09:26;97.03;;;30.90;;
71622;SDS011;59473;53.214;5.728;2022-11-15T08:11:51;95.33;;;30.00;;
71622;SDS011;59473;53.214;5.728;2022-11-15T08:14:16;89.87;;;29.53;;
71622;SDS011;59473;53.214;5.728;2022-11-15T08:16:41;85.85;;;28.77;;
71622;SDS011;59473;53.214;5.728;2022-11-15T08:19:07;97.93;;;29.13;;
71622;SDS011;59473;53.214;5.728;2022-11-15T08:21:32;79.22;;;28.23;;
71622;SDS011;59473;53.214;5.728;2022-11-15T08:23:57;85.75;;;29.02;;
71622;SDS011;59473;53.214;5.728;2022-11-15T08:26:22;81.70;;;28.83;;
71622;SDS011;59473;53.214;5.728;2022-11-15T08:28:49;78.72;;;27.75;;
71622;SDS011;59473;53.214;5.728;2022-11-15T08:31:15;73.17;;;26.63;;
71622;SDS011;59473;53.214;5.728;2022-11-15T08:33:41;86.20;;;28.48;;
71622;SDS011;59473;53.214;5.728;2022-11-15T08:36:10;80.73;;;28.43;;
71622;SDS011;59473;53.214;5.728;2022-11-15T08:38:36;78.97;;;31.95;;
71622;SDS011;59473;53.214;5.728;2022-11-15T08:41:03;97.40;;;39.53;;
71622;SDS011;59473;53.214;5.728;2022-11-15T08:43:28;73.45;;;28.40;;
71622;SDS011;59473;53.214;5.728;2022-11-15T08:45:57;71.90;;;25.97;;
71622;SDS011;59473;53.214;5.728;2022-11-15T08:48:22;69.00;;;26.77;;
71622;SDS011;59473;53.214;5.728;2022-11-15T08:50:48;70.53;;;26.00;;
71622;SDS011;59473;53.214;5.728;2022-11-15T08:53:15;64.70;;;25.73;;
71622;SDS011;59473;53.214;5.728;2022-11-15T08:55:40;63.22;;;25.55;;
71622;SDS011;59473;53.214;5.728;2022-11-15T08:58:05;66.20;;;28.20;;
71622;SDS011;59473;53.214;5.728;2022-11-15T09:00:31;62.20;;;25.20;;
71622;SDS011;59473;53.214;5.728;2022-11-15T09:02:57;57.63;;;25.20;;
71622;SDS011;59473;53.214;5.728;2022-11-15T09:05:22;55.47;;;24.93;;
71622;SDS011;59473;53.214;5.728;2022-11-15T09:07:47;67.23;;;28.20;;
71622;SDS011;59473;53.214;5.728;2022-11-15T09:10:15;57.13;;;24.70;;
71622;SDS011;59473;53.214;5.728;2022-11-15T09:15:57;56.43;;;23.50;;
71622;SDS011;59473;53.214;5.728;2022-11-15T09:21:34;48.67;;;21.83;;
71622;SDS011;59473;53.214;5.728;2022-11-15T09:27:06;47.97;;;23.05;;
71622;SDS011;59473;53.214;5.728;2022-11-15T09:32:34;48.10;;;22.48;;
71622;SDS011;59473;53.214;5.728;2022-11-15T09:38:04;50.55;;;23.77;;
71622;SDS011;59473;53.214;5.728;2022-11-15T09:40:30;48.55;;;23.08;;
71622;SDS011;59473;53.214;5.728;2022-11-15T09:43:05;45.45;;;21.88;;
71622;SDS011;59473;53.214;5.728;2022-11-15T09:45:34;46.60;;;22.20;;
71622;SDS011;59473;53.214;5.728;2022-11-15T09:50:48;41.78;;;20.48;;
71622;SDS011;59473;53.214;5.728;2022-11-15T09:53:17;44.90;;;21.23;;
71622;SDS011;59473;53.214;5.728;2022-11-15T09:55:53;44.28;;;24.08;;
71622;SDS011;59473;53.214;5.728;2022-11-15T09:58:36;43.78;;;22.00;;
71622;SDS011;59473;53.214;5.728;2022-11-15T10:01:05;41.37;;;22.50;;
71622;SDS011;59473;53.214;5.728;2022-11-15T10:03:36;43.10;;;21.27;;
71622;SDS011;59473;53.214;5.728;2022-11-15T10:06:03;42.10;;;21.80;;
71622;SDS011;59473;53.214;5.728;2022-11-15T10:11:17;45.67;;;22.75;;
71622;SDS011;59473;53.214;5.728;2022-11-15T10:13:44;41.50;;;20.27;;
71622;SDS011;59473;53.214;5.728;2022-11-15T10:16:22;43.78;;;22.00;;
71622;SDS011;59473;53.214;5.728;2022-11-15T10:21:45;38.70;;;19.67;;
71622;SDS011;59473;53.214;5.728;2022-11-15T10:24:15;46.47;;;22.98;;
71622;SDS011;59473;53.214;5.728;2022-11-15T10:26:46;36.93;;;19.30;;
71622;SDS011;59473;53.214;5.728;2022-11-15T10:29:17;41.90;;;22.55;;
71622;SDS011;59473;53.214;5.728;2022-11-15T10:31:42;43.90;;;22.33;;
71622;SDS011;59473;53.214;5.728;2022-11-15T10:34:12;36.57;;;17.73;;
71622;SDS011;59473;53.214;5.728;2022-11-15T10:36:38;37.35;;;20.50;;
71622;SDS011;59473;53.214;5.728;2022-11-15T10:39:03;37.50;;;18.10;;
71622;SDS011;59473;53.214;5.728;2022-11-15T10:46:28;37.43;;;20.73;;
71622;SDS011;59473;53.214;5.728;2022-11-15T10:48:53;40.90;;;20.42;;
71622;SDS011;59473;53.214;5.728;2022-11-15T10:51:32;36.07;;;21.10;;
71622;SDS011;59473;53.214;5.728;2022-11-15T10:53:59;34.10;;;16.45;;
71622;SDS011;59473;53.214;5.728;2022-11-15T10:56:25;35.78;;;19.88;;
71622;SDS011;59473;53.214;5.728;2022-11-15T10:58:51;34.00;;;17.85;;
71622;SDS011;59473;53.214;5.728;2022-11-15T11:01:19;29.27;;;16.67;;
71622;SDS011;59473;53.214;5.728;2022-11-15T11:03:45;32.10;;;17.52;;
71622;SDS011;59473;53.214;5.728;2022-11-15T11:06:12;30.90;;;17.05;;
71622;SDS011;59473;53.214;5.728;2022-11-15T11:08:37;27.70;;;16.17;;
71622;SDS011;59473;53.214;5.728;2022-11-15T11:11:03;24.30;;;15.93;;
71622;SDS011;59473;53.214;5.728;2022-11-15T11:18:32;26.35;;;14.93;;
71622;SDS011;59473;53.214;5.728;2022-11-15T11:21:04;26.25;;;13.80;;
71622;SDS011;59473;53.214;5.728;2022-11-15T11:23:38;27.75;;;14.00;;
71622;SDS011;59473;53.214;5.728;2022-11-15T11:31:18;25.50;;;12.02;;
71622;SDS011;59473;53.214;5.728;2022-11-15T11:34:00;26.25;;;13.05;;
71622;SDS011;59473;53.214;5.728;2022-11-15T11:37:02;27.15;;;13.00;;
71622;SDS011;59473;53.214;5.728;2022-11-15T11:41:47;22.83;;;12.47;;
71622;SDS011;59473;53.214;5.728;2022-11-15T11:44:24;25.60;;;12.00;;
71622;SDS011;59473;53.214;5.728;2022-11-15T11:47:12;26.00;;;11.68;;
71622;SDS011;59473;53.214;5.728;2022-11-15T11:57:21;17.98;;;9.93;;
71622;SDS011;59473;53.214;5.728;2022-11-15T11:59:50;21.83;;;11.00;;
71622;SDS011;59473;53.214;5.728;2022-11-15T12:02:26;19.35;;;9.65;;
71622;SDS011;59473;53.214;5.728;2022-11-15T12:04:55;21.13;;;11.60;;
71622;SDS011;59473;53.214;5.728;2022-11-15T12:07:32;19.42;;;9.48;;
71622;SDS011;59473;53.214;5.728;2022-11-15T12:09:59;24.75;;;12.32;;
71622;SDS011;59473;53.214;5.728;2022-11-15T12:15:12;17.10;;;8.68;;
71622;SDS011;59473;53.214;5.728;2022-11-15T12:17:39;21.02;;;10.40;;
71622;SDS011;59473;53.214;5.728;2022-11-15T12:22:59;22.40;;;13.57;;
71622;SDS011;59473;53.214;5.728;2022-11-15T12:25:31;18.37;;;10.87;;
71622;SDS011;59473;53.214;5.728;2022-11-15T12:30:22;19.30;;;10.20;;
71622;SDS011;59473;53.214;5.728;2022-11-15T12:32:58;18.17;;;10.77;;
71622;SDS011;59473;53.214;5.728;2022-11-15T12:35:40;27.83;;;11.67;;
71622;SDS011;59473;53.214;5.728;2022-11-15T12:38:09;19.17;;;11.20;;
71622;SDS011;59473;53.214;5.728;2022-11-15T12:40:39;19.92;;;10.88;;
71622;SDS011;59473;53.214;5.728;2022-11-15T12:43:37;20.15;;;9.48;;
71622;SDS011;59473;53.214;5.728;2022-11-15T12:46:04;19.90;;;7.15;;
71622;SDS011;59473;53.214;5.728;2022-11-15T12:51:01;12.15;;;6.30;;
71622;SDS011;59473;53.214;5.728;2022-11-15T12:53:28;12.15;;;6.10;;
71622;SDS011;59473;53.214;5.728;2022-11-15T13:06:40;15.15;;;6.45;;
71622;SDS011;59473;53.214;5.728;2022-11-15T13:09:49;12.13;;;5.97;;
71622;SDS011;59473;53.214;5.728;2022-11-15T13:11:51;8.97;;;4.00;;
71622;SDS011;59473;53.214;5.728;2022-11-15T13:14:34;7.40;;;3.65;;
71622;SDS011;59473;53.214;5.728;2022-11-15T13:19:49;28.50;;;11.27;;
71622;SDS011;59473;53.214;5.728;2022-11-15T13:22:17;29.27;;;12.23;;
71622;SDS011;59473;53.214;5.728;2022-11-15T13:25:01;49.05;;;20.45;;
71622;SDS011;59473;53.214;5.728;2022-11-15T13:27:26;39.07;;;16.47;;
71622;SDS011;59473;53.214;5.728;2022-11-15T13:29:52;16.47;;;7.07;;
71622;SDS011;59473;53.214;5.728;2022-11-15T13:32:17;14.88;;;8.75;;
71622;SDS011;59473;53.214;5.728;2022-11-15T13:34:43;9.63;;;5.33;;
71622;SDS011;59473;53.214;5.728;2022-11-15T13:39:45;8.97;;;6.07;;
71622;SDS011;59473;53.214;5.728;2022-11-15T13:42:14;10.73;;;6.33;;
71622;SDS011;59473;53.214;5.728;2022-11-15T13:44:39;10.32;;;5.25;;
71622;SDS011;59473;53.214;5.728;2022-11-15T13:47:05;10.73;;;5.57;;
71622;SDS011;59473;53.214;5.728;2022-11-15T13:49:31;9.93;;;4.15;;
71622;SDS011;59473;53.214;5.728;2022-11-15T13:51:57;13.50;;;5.70;;
71622;SDS011;59473;53.214;5.728;2022-11-15T13:54:25;9.60;;;4.55;;
71622;SDS011;59473;53.214;5.728;2022-11-15T13:56:53;7.37;;;4.23;;
71622;SDS011;59473;53.214;5.728;2022-11-15T13:59:27;8.25;;;4.97;;
71622;SDS011;59473;53.214;5.728;2022-11-15T14:01:56;9.52;;;5.07;;
71622;SDS011;59473;53.214;5.728;2022-11-15T14:04:22;9.10;;;4.40;;
71622;SDS011;59473;53.214;5.728;2022-11-15T14:06:53;10.50;;;4.97;;
71622;SDS011;59473;53.214;5.728;2022-11-15T14:11:51;12.38;;;6.65;;
71622;SDS011;59473;53.214;5.728;2022-11-15T14:14:17;11.05;;;6.03;;
71622;SDS011;59473;53.214;5.728;2022-11-15T14:16:45;8.43;;;4.97;;
71622;SDS011;59473;53.214;5.728;2022-11-15T14:19:55;9.20;;;5.70;;
71622;SDS011;59473;53.214;5.728;2022-11-15T14:24:37;8.70;;;4.53;;
71622;SDS011;59473;53.214;5.728;2022-11-15T14:27:19;8.93;;;5.30;;
71622;SDS011;59473;53.214;5.728;2022-11-15T14:29:45;11.90;;;7.72;;
71622;SDS011;59473;53.214;5.728;2022-11-15T14:34:38;9.30;;;4.10;;
71622;SDS011;59473;53.214;5.728;2022-11-15T14:37:03;7.20;;;4.37;;
71622;SDS011;59473;53.214;5.728;2022-11-15T14:39:28;8.93;;;4.13;;
71622;SDS011;59473;53.214;5.728;2022-11-15T14:41:54;7.27;;;3.87;;
71622;SDS011;59473;53.214;5.728;2022-11-15T14:44:19;7.43;;;3.97;;
71622;SDS011;59473;53.214;5.728;2022-11-15T14:46:45;6.68;;;3.70;;
71622;SDS011;59473;53.214;5.728;2022-11-15T14:49:11;6.87;;;3.00;;
71622;SDS011;59473;53.214;5.728;2022-11-15T14:51:38;6.15;;;3.17;;
71622;SDS011;59473;53.214;5.728;2022-11-15T14:54:03;5.80;;;3.20;;
71622;SDS011;59473;53.214;5.728;2022-11-15T14:56:28;7.13;;;3.10;;
71622;SDS011;59473;53.214;5.728;2022-11-15T14:58:53;9.33;;;3.37;;
71622;SDS011;59473;53.214;5.728;2022-11-15T15:01:21;9.57;;;2.85;;
71622;SDS011;59473;53.214;5.728;2022-11-15T15:03:46;25.73;;;12.95;;
71622;SDS011;59473;53.214;5.728;2022-11-15T15:06:12;18.00;;;9.47;;
71622;SDS011;59473;53.214;5.728;2022-11-15T15:08:39;14.38;;;7.85;;
71622;SDS011;59473;53.214;5.728;2022-11-15T15:11:08;10.10;;;6.20;;
71622;SDS011;59473;53.214;5.728;2022-11-15T15:13:35;9.30;;;5.95;;
71622;SDS011;59473;53.214;5.728;2022-11-15T15:16:00;12.43;;;5.60;;
71622;SDS011;59473;53.214;5.728;2022-11-15T15:18:25;10.63;;;5.57;;
71622;SDS011;59473;53.214;5.728;2022-11-15T15:20:55;7.97;;;4.27;;
71622;SDS011;59473;53.214;5.728;2022-11-15T15:23:21;11.20;;;3.77;;
71622;SDS011;59473;53.214;5.728;2022-11-15T15:25:47;8.32;;;3.75;;
71622;SDS011;59473;53.214;5.728;2022-11-15T15:28:13;6.20;;;2.92;;
71622;SDS011;59473;53.214;5.728;2022-11-15T15:30:39;7.23;;;3.27;;
71622;SDS011;59473;53.214;5.728;2022-11-15T15:33:04;10.40;;;3.40;;
71622;SDS011;59473;53.214;5.728;2022-11-15T15:35:30;6.20;;;3.60;;
71622;SDS011;59473;53.214;5.728;2022-11-15T15:37:56;8.38;;;3.40;;
71622;SDS011;59473;53.214;5.728;2022-11-15T15:40:22;7.70;;;3.53;;
71622;SDS011;59473;53.214;5.728;2022-11-15T15:42:48;6.65;;;3.63;;
71622;SDS011;59473;53.214;5.728;2022-11-15T15:45:13;8.88;;;4.20;;
71622;SDS011;59473;53.214;5.728;2022-11-15T15:47:39;9.13;;;3.93;;
71622;SDS011;59473;53.214;5.728;2022-11-15T15:52:36;8.33;;;4.70;;
71622;SDS011;59473;53.214;5.728;2022-11-15T15:55:01;11.55;;;5.85;;
71622;SDS011;59473;53.214;5.728;2022-11-15T15:57:27;11.10;;;5.75;;
71622;SDS011;59473;53.214;5.728;2022-11-15T15:59:52;40.07;;;17.83;;
71622;SDS011;59473;53.214;5.728;2022-11-15T16:02:17;43.13;;;19.40;;
71622;SDS011;59473;53.214;5.728;2022-11-15T16:04:42;17.67;;;7.83;;
71622;SDS011;59473;53.214;5.728;2022-11-15T16:07:12;12.77;;;6.90;;
71622;SDS011;59473;53.214;5.728;2022-11-15T16:09:40;14.00;;;6.50;;
71622;SDS011;59473;53.214;5.728;2022-11-15T16:12:24;10.80;;;5.22;;
71622;SDS011;59473;53.214;5.728;2022-11-15T16:14:49;7.20;;;3.07;;
71622;SDS011;59473;53.214;5.728;2022-11-15T16:17:16;6.47;;;3.53;;
71622;SDS011;59473;53.214;5.728;2022-11-15T16:19:42;7.90;;;3.28;;
71622;SDS011;59473;53.214;5.728;2022-11-15T16:22:07;5.50;;;2.87;;
71622;SDS011;59473;53.214;5.728;2022-11-15T16:24:32;7.43;;;2.53;;
71622;SDS011;59473;53.214;5.728;2022-11-15T16:26:57;5.73;;;2.90;;